createdAt,value
2015-09-09T00:00:06.086Z,10.4
2015-09-09T00:00:24.680Z,10.4
2015-09-09T00:00:43.088Z,10.4
2015-09-09T00:01:01.697Z,10.4
2015-09-09T00:01:20.119Z,10.4
2015-09-09T00:01:38.762Z,10.4
2015-09-09T00:01:57.230Z,10.4
2015-09-09T00:02:15.637Z,10.4
2015-09-09T00:02:34.105Z,10.4
2015-09-09T00:02:52.592Z,10.4
2015-09-09T00:03:10.967Z,10.4
2015-09-09T00:03:29.482Z,10.3
2015-09-09T00:03:47.405Z,10.3
2015-09-09T00:04:05.952Z,10.4
2015-09-09T00:04:24.374Z,10.4
2015-09-09T00:04:42.955Z,10.4
2015-09-09T00:05:01.440Z,10.4
2015-09-09T00:05:19.924Z,10.4
2015-09-09T00:05:38.361Z,10.4
2015-09-09T00:05:56.800Z,10.4
2015-09-09T00:06:15.331Z,10.4
2015-09-09T00:06:33.987Z,10.3
2015-09-09T00:06:52.350Z,10.4
2015-09-09T00:07:10.756Z,10.4
2015-09-09T00:07:29.209Z,10.4
2015-09-09T00:07:47.648Z,10.4
2015-09-09T00:08:06.163Z,10.4
2015-09-09T00:08:24.695Z,10.4
2015-09-09T00:08:43.085Z,10.4
2015-09-09T00:09:01.494Z,10.4
2015-09-09T00:09:19.916Z,10.4
2015-09-09T00:09:38.448Z,10.4
2015-09-09T00:09:57.011Z,10.4
2015-09-09T00:10:15.527Z,10.4
2015-09-09T00:10:33.995Z,10.5
2015-09-09T00:10:52.513Z,10.5
2015-09-09T00:11:11.107Z,10.4
2015-09-09T00:11:29.497Z,10.4
2015-09-09T00:11:47.951Z,10.4
2015-09-09T00:12:06.469Z,10.4
2015-09-09T00:12:24.891Z,10.4
2015-09-09T00:12:43.329Z,10.4
2015-09-09T00:13:01.767Z,10.4
2015-09-09T00:13:20.142Z,10.3
2015-09-09T00:13:38.564Z,10.3
2015-09-09T00:13:57.003Z,10.2
2015-09-09T00:14:15.394Z,10.2
2015-09-09T00:14:33.769Z,10.2
2015-09-09T00:14:52.144Z,10.2
2015-09-09T00:15:10.537Z,10.2
2015-09-09T00:15:28.912Z,10.2
2015-09-09T00:15:47.334Z,10.2
2015-09-09T00:16:05.930Z,10.2
2015-09-09T00:16:24.337Z,10.2
2015-09-09T00:16:42.821Z,10.2
2015-09-09T00:17:01.228Z,10.2
2015-09-09T00:17:19.588Z,10.1
2015-09-09T00:17:38.181Z,10.1
2015-09-09T00:17:56.650Z,10.1
2015-09-09T00:18:15.090Z,10.1
2015-09-09T00:18:33.465Z,10.1
2015-09-09T00:18:51.886Z,10.1
2015-09-09T00:19:10.279Z,10.1
2015-09-09T00:19:28.638Z,10.1
2015-09-09T00:19:47.310Z,10.1
2015-09-09T00:20:05.719Z,10
2015-09-09T00:20:24.078Z,10
2015-09-09T00:20:42.453Z,10
2015-09-09T00:21:00.937Z,10
2015-09-09T00:21:19.361Z,10
2015-09-09T00:21:37.736Z,10
2015-09-09T00:21:56.111Z,10
2015-09-09T00:22:14.629Z,10
2015-09-09T00:22:33.066Z,10
2015-09-09T00:22:51.473Z,9.9
2015-09-09T00:23:09.943Z,10
2015-09-09T00:23:28.365Z,9.9
2015-09-09T00:23:46.725Z,9.9
2015-09-09T00:24:05.100Z,9.9
2015-09-09T00:24:23.570Z,9.9
2015-09-09T00:24:41.945Z,10
2015-09-09T00:25:00.305Z,10
2015-09-09T00:25:18.791Z,10
2015-09-09T00:25:37.229Z,10
2015-09-09T00:25:55.650Z,10
2015-09-09T00:26:14.090Z,10
2015-09-09T00:26:32.512Z,10
2015-09-09T00:26:51.074Z,10
2015-09-09T00:27:09.623Z,9.9
2015-09-09T00:27:28.014Z,9.9
2015-09-09T00:27:46.498Z,9.9
2015-09-09T00:28:05.014Z,9.9
2015-09-09T00:28:23.438Z,9.9
2015-09-09T00:28:41.860Z,9.9
2015-09-09T00:29:00.328Z,9.9
2015-09-09T00:29:18.689Z,9.9
2015-09-09T00:29:37.298Z,9.8
2015-09-09T00:29:55.845Z,9.8
2015-09-09T00:30:14.504Z,9.8
2015-09-09T00:30:32.895Z,9.8
2015-09-09T00:30:51.285Z,9.8
2015-09-09T00:31:09.520Z,9.8
2015-09-09T00:31:28.068Z,9.8
2015-09-09T00:31:46.505Z,9.8
2015-09-09T00:32:04.990Z,9.8
2015-09-09T00:32:23.368Z,9.8
2015-09-09T00:32:41.774Z,9.8
2015-09-09T00:33:00.133Z,9.8
2015-09-09T00:33:18.526Z,9.8
2015-09-09T00:33:36.885Z,9.7
2015-09-09T00:33:55.260Z,9.7
2015-09-09T00:34:13.635Z,9.8
2015-09-09T00:34:32.089Z,9.8
2015-09-09T00:34:50.621Z,9.8
2015-09-09T00:35:08.996Z,9.8
2015-09-09T00:35:27.405Z,9.8
2015-09-09T00:35:45.889Z,9.8
2015-09-09T00:36:04.264Z,9.8
2015-09-09T00:36:22.734Z,9.8
2015-09-09T00:36:41.140Z,9.7
2015-09-09T00:36:59.875Z,9.7
2015-09-09T00:37:18.234Z,9.7
2015-09-09T00:37:36.628Z,9.7
2015-09-09T00:37:55.018Z,9.7
2015-09-09T00:38:13.440Z,9.7
2015-09-09T00:38:31.847Z,9.7
2015-09-09T00:38:50.207Z,9.7
2015-09-09T00:39:08.629Z,9.7
2015-09-09T00:39:27.037Z,9.7
2015-09-09T00:39:45.443Z,9.6
2015-09-09T00:40:03.959Z,9.6
2015-09-09T00:40:22.334Z,9.5
2015-09-09T00:40:40.727Z,9.5
2015-09-09T00:40:59.118Z,9.5
2015-09-09T00:41:17.524Z,9.5
2015-09-09T00:41:36.026Z,9.5
2015-09-09T00:41:54.526Z,9.5
2015-09-09T00:42:12.932Z,9.5
2015-09-09T00:42:31.308Z,9.5
2015-09-09T00:42:49.668Z,9.5
2015-09-09T00:43:08.230Z,9.6
2015-09-09T00:43:26.730Z,9.6
2015-09-09T00:43:45.092Z,9.6
2015-09-09T00:44:03.560Z,9.6
2015-09-09T00:44:21.951Z,9.6
2015-09-09T00:44:40.562Z,9.5
2015-09-09T00:44:58.969Z,9.5
2015-09-09T00:45:17.406Z,9.5
2015-09-09T00:45:35.799Z,9.5
2015-09-09T00:45:54.221Z,9.5
2015-09-09T00:46:12.861Z,9.6
2015-09-09T00:46:31.252Z,9.5
2015-09-09T00:46:49.629Z,9.5
2015-09-09T00:47:08.145Z,9.5
2015-09-09T00:47:26.707Z,9.5
2015-09-09T00:47:45.350Z,9.5
2015-09-09T00:48:03.709Z,9.5
2015-09-09T00:48:22.068Z,9.5
2015-09-09T00:48:40.555Z,9.4
2015-09-09T00:48:59.024Z,9.5
2015-09-09T00:49:17.414Z,9.5
2015-09-09T00:49:35.789Z,9.5
2015-09-09T00:49:54.260Z,9.4
2015-09-09T00:50:12.776Z,9.5
2015-09-09T00:50:31.166Z,9.5
2015-09-09T00:50:49.715Z,9.5
2015-09-09T00:51:08.090Z,9.5
2015-09-09T00:51:26.590Z,9.4
2015-09-09T00:51:44.966Z,9.4
2015-09-09T00:52:03.341Z,9.3
2015-09-09T00:52:22.013Z,9.4
2015-09-09T00:52:40.450Z,9.4
2015-09-09T00:52:59.094Z,9.4
2015-09-09T00:53:17.500Z,9.4
2015-09-09T00:53:35.907Z,9.3
2015-09-09T00:53:54.424Z,9.3
2015-09-09T00:54:12.815Z,9.3
2015-09-09T00:54:31.205Z,9.3
2015-09-09T00:54:49.566Z,9.3
2015-09-09T00:55:08.128Z,9.3
2015-09-09T00:55:26.503Z,9.3
2015-09-09T00:55:44.956Z,9.2
2015-09-09T00:56:03.397Z,9.2
2015-09-09T00:56:22.006Z,9.3
2015-09-09T00:56:40.428Z,9.3
2015-09-09T00:56:58.883Z,9.3
2015-09-09T00:57:17.258Z,9.3
2015-09-09T00:57:35.618Z,9.3
2015-09-09T00:57:54.026Z,9.4
2015-09-09T00:58:12.526Z,9.4
2015-09-09T00:58:30.917Z,9.3
2015-09-09T00:58:49.307Z,9.3
2015-09-09T00:59:07.840Z,9.3
2015-09-09T00:59:26.372Z,9.3
2015-09-09T00:59:44.762Z,9.3
2015-09-09T01:00:03.138Z,9.3
2015-09-09T01:00:21.826Z,9.3
2015-09-09T01:00:40.279Z,9.3
2015-09-09T01:00:58.673Z,9.3
2015-09-09T01:01:17.173Z,9.3
2015-09-09T01:01:35.532Z,9.2
2015-09-09T01:01:53.923Z,9.2
2015-09-09T01:02:12.393Z,9.2
2015-09-09T01:02:31.018Z,9.2
2015-09-09T01:02:49.581Z,9.2
2015-09-09T01:03:08.005Z,9.2
2015-09-09T01:03:26.411Z,9.2
2015-09-09T01:03:44.817Z,9.2
2015-09-09T01:04:03.584Z,9.2
2015-09-09T01:04:21.974Z,9.2
2015-09-09T01:04:40.428Z,9.2
2015-09-09T01:04:58.834Z,9.2
2015-09-09T01:05:17.320Z,9.2
2015-09-09T01:05:35.726Z,9.3
2015-09-09T01:05:54.101Z,9.3
2015-09-09T01:06:12.682Z,9.3
2015-09-09T01:06:31.057Z,9.3
2015-09-09T01:06:49.463Z,9.3
2015-09-09T01:07:07.824Z,9.3
2015-09-09T01:07:26.262Z,9.2
2015-09-09T01:07:44.746Z,9.1
2015-09-09T01:08:03.137Z,9
2015-09-09T01:08:21.498Z,9
2015-09-09T01:08:40.061Z,9
2015-09-09T01:08:58.420Z,9.1
2015-09-09T01:09:17.078Z,9.2
2015-09-09T01:09:35.516Z,9.2
2015-09-09T01:09:54.375Z,9.2
2015-09-09T01:10:12.831Z,9.1
2015-09-09T01:10:31.378Z,9
2015-09-09T01:10:49.816Z,8.9
2015-09-09T01:11:08.269Z,8.9
2015-09-09T01:11:26.723Z,8.8
2015-09-09T01:11:45.192Z,8.9
2015-09-09T01:12:03.613Z,9
2015-09-09T01:12:22.287Z,9
2015-09-09T01:12:40.709Z,9.1
2015-09-09T01:12:59.100Z,9
2015-09-09T01:13:17.508Z,9
2015-09-09T01:13:35.899Z,9
2015-09-09T01:13:54.321Z,9
2015-09-09T01:14:12.758Z,9
2015-09-09T01:14:31.151Z,9
2015-09-09T01:14:49.666Z,9
2015-09-09T01:15:08.088Z,9.1
2015-09-09T01:15:26.746Z,9.1
2015-09-09T01:15:45.153Z,9
2015-09-09T01:16:03.528Z,9
2015-09-09T01:16:21.920Z,9
2015-09-09T01:16:40.373Z,9
2015-09-09T01:16:58.764Z,9.1
2015-09-09T01:17:17.248Z,9.1
2015-09-09T01:17:35.969Z,9.1
2015-09-09T01:17:54.344Z,9.1
2015-09-09T01:18:12.782Z,9.1
2015-09-09T01:18:31.237Z,9.1
2015-09-09T01:18:49.768Z,9.1
2015-09-09T01:19:08.190Z,9.1
2015-09-09T01:19:26.598Z,9.1
2015-09-09T01:19:45.020Z,9
2015-09-09T01:20:03.426Z,9
2015-09-09T01:20:21.801Z,9
2015-09-09T01:20:40.210Z,9
2015-09-09T01:20:58.631Z,9
2015-09-09T01:21:17.022Z,9
2015-09-09T01:21:35.462Z,9
2015-09-09T01:21:53.946Z,9
2015-09-09T01:22:12.493Z,9
2015-09-09T01:22:31.025Z,9.1
2015-09-09T01:22:49.525Z,9.1
2015-09-09T01:23:07.916Z,9
2015-09-09T01:23:26.291Z,9
2015-09-09T01:23:44.700Z,9
2015-09-09T01:24:03.200Z,9
2015-09-09T01:24:21.575Z,9
2015-09-09T01:24:40.108Z,9
2015-09-09T01:24:58.483Z,9
2015-09-09T01:25:16.858Z,9
2015-09-09T01:25:35.266Z,9
2015-09-09T01:25:53.688Z,9
2015-09-09T01:26:12.141Z,9.1
2015-09-09T01:26:30.548Z,9.1
2015-09-09T01:26:48.925Z,9.1
2015-09-09T01:27:07.362Z,9.1
2015-09-09T01:27:25.831Z,9.1
2015-09-09T01:27:44.208Z,9.1
2015-09-09T01:28:02.661Z,9.1
2015-09-09T01:28:21.192Z,9.1
2015-09-09T01:28:39.647Z,9.1
2015-09-09T01:28:58.241Z,9
2015-09-09T01:29:16.663Z,9
2015-09-09T01:29:35.116Z,9
2015-09-09T01:29:53.570Z,9
2015-09-09T01:30:11.977Z,9
2015-09-09T01:30:30.336Z,9
2015-09-09T01:30:48.697Z,9
2015-09-09T01:31:07.072Z,8.9
2015-09-09T01:31:25.447Z,8.9
2015-09-09T01:31:44.107Z,8.9
2015-09-09T01:32:02.497Z,8.9
2015-09-09T01:32:21.185Z,8.9
2015-09-09T01:32:39.653Z,8.9
2015-09-09T01:32:58.312Z,8.9
2015-09-09T01:33:16.749Z,8.8
2015-09-09T01:33:35.015Z,8.8
2015-09-09T01:33:53.719Z,8.8
2015-09-09T01:34:12.125Z,8.8
2015-09-09T01:34:30.610Z,8.8
2015-09-09T01:34:49.003Z,8.8
2015-09-09T01:35:07.394Z,8.8
2015-09-09T01:35:25.784Z,8.9
2015-09-09T01:35:44.581Z,8.8
2015-09-09T01:36:02.989Z,8.8
2015-09-09T01:36:21.364Z,8.9
2015-09-09T01:36:39.739Z,8.9
2015-09-09T01:36:58.210Z,8.9
2015-09-09T01:37:16.695Z,8.9
2015-09-09T01:37:35.257Z,8.9
2015-09-09T01:37:53.758Z,8.9
2015-09-09T01:38:12.258Z,8.9
2015-09-09T01:38:30.711Z,8.9
2015-09-09T01:38:49.164Z,8.9
2015-09-09T01:39:07.604Z,8.9
2015-09-09T01:39:26.198Z,8.8
2015-09-09T01:39:44.698Z,8.8
2015-09-09T01:40:03.107Z,8.8
2015-09-09T01:40:21.498Z,8.8
2015-09-09T01:40:39.951Z,8.8
2015-09-09T01:40:58.359Z,8.8
2015-09-09T01:41:16.875Z,8.8
2015-09-09T01:41:35.328Z,8.8
2015-09-09T01:41:53.750Z,8.8
2015-09-09T01:42:12.158Z,8.8
2015-09-09T01:42:30.548Z,8.8
2015-09-09T01:42:49.080Z,8.7
2015-09-09T01:43:07.659Z,8.7
2015-09-09T01:43:26.096Z,8.7
2015-09-09T01:43:44.503Z,8.7
2015-09-09T01:44:03.036Z,8.7
2015-09-09T01:44:21.520Z,8.7
2015-09-09T01:44:39.958Z,8.7
2015-09-09T01:44:58.317Z,8.7
2015-09-09T01:45:16.695Z,8.7
2015-09-09T01:45:35.164Z,8.8
2015-09-09T01:45:53.554Z,8.8
2015-09-09T01:46:12.071Z,8.8
2015-09-09T01:46:30.446Z,8.8
2015-09-09T01:46:49.071Z,8.7
2015-09-09T01:47:07.433Z,8.7
2015-09-09T01:47:25.840Z,8.7
2015-09-09T01:47:44.215Z,8.7
2015-09-09T01:48:02.605Z,8.7
2015-09-09T01:48:21.013Z,8.7
2015-09-09T01:48:39.403Z,8.8
2015-09-09T01:48:57.778Z,8.7
2015-09-09T01:49:16.171Z,8.7
2015-09-09T01:49:34.546Z,8.7
2015-09-09T01:49:53.046Z,8.6
2015-09-09T01:50:11.610Z,8.6
2015-09-09T01:50:30.142Z,8.6
2015-09-09T01:50:48.767Z,8.6
2015-09-09T01:51:07.173Z,8.6
2015-09-09T01:51:25.800Z,8.6
2015-09-09T01:51:44.269Z,8.6
2015-09-09T01:52:02.675Z,8.7
2015-09-09T01:52:21.067Z,8.7
2015-09-09T01:52:39.552Z,8.7
2015-09-09T01:52:58.130Z,8.7
2015-09-09T01:53:16.507Z,8.7
2015-09-09T01:53:34.991Z,8.7
2015-09-09T01:53:53.382Z,8.7
2015-09-09T01:54:11.837Z,8.7
2015-09-09T01:54:30.259Z,8.7
2015-09-09T01:54:48.728Z,8.7
2015-09-09T01:55:07.181Z,8.6
2015-09-09T01:55:25.808Z,8.6
2015-09-09T01:55:44.370Z,8.6
2015-09-09T01:56:02.870Z,8.6
2015-09-09T01:56:21.263Z,8.6
2015-09-09T01:56:39.747Z,8.6
2015-09-09T01:56:58.904Z,8.7
2015-09-09T01:57:17.281Z,8.7
2015-09-09T01:57:35.702Z,8.7
2015-09-09T01:57:54.093Z,8.7
2015-09-09T01:58:12.468Z,8.7
2015-09-09T01:58:30.844Z,8.7
2015-09-09T01:58:49.547Z,8.7
2015-09-09T01:59:07.969Z,8.7
2015-09-09T01:59:26.409Z,8.6
2015-09-09T01:59:44.940Z,8.6
2015-09-09T02:00:03.346Z,8.7
2015-09-09T02:00:22.114Z,8.6
2015-09-09T02:00:40.582Z,8.6
2015-09-09T02:00:59.270Z,8.6
2015-09-09T02:01:17.710Z,8.6
2015-09-09T02:01:36.320Z,8.6
2015-09-09T02:01:54.679Z,8.6
2015-09-09T02:02:13.070Z,8.6
2015-09-09T02:02:31.447Z,8.5
2015-09-09T02:02:49.806Z,8.5
2015-09-09T02:03:08.166Z,8.5
2015-09-09T02:03:26.588Z,8.5
2015-09-09T02:03:45.167Z,8.5
2015-09-09T02:04:03.588Z,8.5
2015-09-09T02:04:21.950Z,8.4
2015-09-09T02:04:40.434Z,8.5
2015-09-09T02:04:58.809Z,8.5
2015-09-09T02:05:17.247Z,8.5
2015-09-09T02:05:35.781Z,8.5
2015-09-09T02:05:54.297Z,8.5
2015-09-09T02:06:12.859Z,8.5
2015-09-09T02:06:31.314Z,8.5
2015-09-09T02:06:49.705Z,8.5
2015-09-09T02:07:08.377Z,8.5
2015-09-09T02:07:26.753Z,8.5
2015-09-09T02:07:45.409Z,8.5
2015-09-09T02:08:03.815Z,8.5
2015-09-09T02:08:22.221Z,8.5
2015-09-09T02:08:40.630Z,8.5
2015-09-09T02:08:59.098Z,8.5
2015-09-09T02:09:17.442Z,8.5
2015-09-09T02:09:35.929Z,8.5
2015-09-09T02:09:54.272Z,8.5
2015-09-09T02:10:12.663Z,8.4
2015-09-09T02:10:31.024Z,8.4
2015-09-09T02:10:49.509Z,8.4
2015-09-09T02:11:07.899Z,8.4
2015-09-09T02:11:26.368Z,8.4
2015-09-09T02:11:44.808Z,8.4
2015-09-09T02:12:03.261Z,8.4
2015-09-09T02:12:21.636Z,8.4
2015-09-09T02:12:40.231Z,8.4
2015-09-09T02:12:58.685Z,8.4
2015-09-09T02:13:17.185Z,8.3
2015-09-09T02:13:35.796Z,8.3
2015-09-09T02:13:54.390Z,8.3
2015-09-09T02:14:12.780Z,8.3
2015-09-09T02:14:31.171Z,8.3
2015-09-09T02:14:49.735Z,8.4
2015-09-09T02:15:08.189Z,8.3
2015-09-09T02:15:26.564Z,8.4
2015-09-09T02:15:45.049Z,8.3
2015-09-09T02:16:03.658Z,8.3
2015-09-09T02:16:22.424Z,8.3
2015-09-09T02:16:40.880Z,8.3
2015-09-09T02:16:59.302Z,8.3
2015-09-09T02:17:17.724Z,8.3
2015-09-09T02:17:36.130Z,8.4
2015-09-09T02:17:54.663Z,8.3
2015-09-09T02:18:13.038Z,8.3
2015-09-09T02:18:31.445Z,8.3
2015-09-09T02:18:49.930Z,8.3
2015-09-09T02:19:08.414Z,8.3
2015-09-09T02:19:26.805Z,8.4
2015-09-09T02:19:45.199Z,8.4
2015-09-09T02:20:03.824Z,8.4
2015-09-09T02:20:22.183Z,8.4
2015-09-09T02:20:40.761Z,8.4
2015-09-09T02:20:59.215Z,8.4
2015-09-09T02:21:17.575Z,8.4
2015-09-09T02:21:35.996Z,8.4
2015-09-09T02:21:54.374Z,8.4
2015-09-09T02:22:12.734Z,8.4
2015-09-09T02:22:31.328Z,8.4
2015-09-09T02:22:49.813Z,8.4
2015-09-09T02:23:08.250Z,8.3
2015-09-09T02:23:26.969Z,8.3
2015-09-09T02:23:45.516Z,8.3
2015-09-09T02:24:04.128Z,8.3
2015-09-09T02:24:22.535Z,8.3
2015-09-09T02:24:41.128Z,8.3
2015-09-09T02:24:59.505Z,8.3
2015-09-09T02:25:17.880Z,8.3
2015-09-09T02:25:36.302Z,8.3
2015-09-09T02:25:54.679Z,8.3
2015-09-09T02:26:13.320Z,8.3
2015-09-09T02:26:31.726Z,8.3
2015-09-09T02:26:50.227Z,8.3
2015-09-09T02:27:08.649Z,8.3
2015-09-09T02:27:27.087Z,8.3
2015-09-09T02:27:45.524Z,8.3
2015-09-09T02:28:03.917Z,8.4
2015-09-09T02:28:22.323Z,8.3
2015-09-09T02:28:40.776Z,8.4
2015-09-09T02:28:59.326Z,8.4
2015-09-09T02:29:17.810Z,8.4
2015-09-09T02:29:36.310Z,8.4
2015-09-09T02:29:54.686Z,8.4
2015-09-09T02:30:13.046Z,8.4
2015-09-09T02:30:31.468Z,8.4
2015-09-09T02:30:49.858Z,8.4
2015-09-09T02:31:08.407Z,8.4
2015-09-09T02:31:26.766Z,8.4
2015-09-09T02:31:45.173Z,8.4
2015-09-09T02:32:03.643Z,8.4
2015-09-09T02:32:22.034Z,8.3
2015-09-09T02:32:40.643Z,8.3
2015-09-09T02:32:59.100Z,8.3
2015-09-09T02:33:17.475Z,8.4
2015-09-09T02:33:35.943Z,8.4
2015-09-09T02:33:54.365Z,8.4
2015-09-09T02:34:12.772Z,8.4
2015-09-09T02:34:31.179Z,8.4
2015-09-09T02:34:49.632Z,8.4
2015-09-09T02:35:08.009Z,8.4
2015-09-09T02:35:26.368Z,8.4
2015-09-09T02:35:44.571Z,8.3
2015-09-09T02:36:03.059Z,8.3
2015-09-09T02:36:21.481Z,8.3
2015-09-09T02:36:40.090Z,8.3
2015-09-09T02:36:58.465Z,8.3
2015-09-09T02:37:17.044Z,8.2
2015-09-09T02:37:35.482Z,8.2
2015-09-09T02:37:53.903Z,8.2
2015-09-09T02:38:12.327Z,8.2
2015-09-09T02:38:30.796Z,8.1
2015-09-09T02:38:49.155Z,8.2
2015-09-09T02:39:07.564Z,8.2
2015-09-09T02:39:26.079Z,8.2
2015-09-09T02:39:44.439Z,8.2
2015-09-09T02:40:02.829Z,8.2
2015-09-09T02:40:21.316Z,8.2
2015-09-09T02:40:39.769Z,8.2
2015-09-09T02:40:58.363Z,8.2
2015-09-09T02:41:16.865Z,8.3
2015-09-09T02:41:35.240Z,8.3
2015-09-09T02:41:54.583Z,8.3
2015-09-09T02:42:13.038Z,8.3
2015-09-09T02:42:31.445Z,8.2
2015-09-09T02:42:49.992Z,8.2
2015-09-09T02:43:08.523Z,8.3
2015-09-09T02:43:26.900Z,8.2
2015-09-09T02:43:45.447Z,8.2
2015-09-09T02:44:03.884Z,8.2
2015-09-09T02:44:22.246Z,8.2
2015-09-09T02:44:40.683Z,8.2
2015-09-09T02:44:59.136Z,8.1
2015-09-09T02:45:17.576Z,8.1
2015-09-09T02:45:35.951Z,8.2
2015-09-09T02:45:54.544Z,8.2
2015-09-09T02:46:13.029Z,8.1
2015-09-09T02:46:31.499Z,8.2
2015-09-09T02:46:49.967Z,8.2
2015-09-09T02:47:08.358Z,8.2
2015-09-09T02:47:26.798Z,8.1
2015-09-09T02:47:45.205Z,8.1
2015-09-09T02:48:03.595Z,8.2
2015-09-09T02:48:22.316Z,8.2
2015-09-09T02:48:40.722Z,8.2
2015-09-09T02:48:59.285Z,8.1
2015-09-09T02:49:17.769Z,8.1
2015-09-09T02:49:36.131Z,8.2
2015-09-09T02:49:54.599Z,8.2
2015-09-09T02:50:13.193Z,8.2
2015-09-09T02:50:31.600Z,8.1
2015-09-09T02:50:49.975Z,8
2015-09-09T02:51:08.428Z,8
2015-09-09T02:51:26.822Z,8
2015-09-09T02:51:45.228Z,8
2015-09-09T02:52:03.869Z,8
2015-09-09T02:52:22.291Z,8.1
2015-09-09T02:52:40.699Z,8
2015-09-09T02:52:59.277Z,8
2015-09-09T02:53:17.652Z,8
2015-09-09T02:53:36.232Z,8
2015-09-09T02:53:54.623Z,8
2015-09-09T02:54:13.014Z,8
2015-09-09T02:54:31.452Z,8
2015-09-09T02:54:50.233Z,8
2015-09-09T02:55:08.593Z,8
2015-09-09T02:55:27.061Z,8
2015-09-09T02:55:45.485Z,8
2015-09-09T02:56:04.017Z,8
2015-09-09T02:56:22.563Z,8
2015-09-09T02:56:40.941Z,8
2015-09-09T02:56:59.316Z,8
2015-09-09T02:57:17.707Z,8
2015-09-09T02:57:36.114Z,8
2015-09-09T02:57:54.614Z,8
2015-09-09T02:58:13.161Z,8
2015-09-09T02:58:31.536Z,7.9
2015-09-09T02:58:49.991Z,7.9
2015-09-09T02:59:08.554Z,7.9
2015-09-09T02:59:27.007Z,7.9
2015-09-09T02:59:45.665Z,7.9
2015-09-09T03:00:04.243Z,7.9
2015-09-09T03:00:22.743Z,7.9
2015-09-09T03:00:41.089Z,7.9
2015-09-09T03:00:59.683Z,7.9
2015-09-09T03:01:18.198Z,8
2015-09-09T03:01:36.638Z,8
2015-09-09T03:01:54.982Z,8
2015-09-09T03:02:13.419Z,8
2015-09-09T03:02:31.841Z,8
2015-09-09T03:02:50.265Z,8
2015-09-09T03:03:08.624Z,8
2015-09-09T03:03:27.077Z,8
2015-09-09T03:03:45.486Z,8
2015-09-09T03:04:04.158Z,8
2015-09-09T03:04:22.533Z,7.9
2015-09-09T03:04:40.989Z,7.9
2015-09-09T03:04:59.457Z,8
2015-09-09T03:05:17.879Z,8
2015-09-09T03:05:36.286Z,8
2015-09-09T03:05:54.833Z,8
2015-09-09T03:06:13.224Z,8
2015-09-09T03:06:31.724Z,8
2015-09-09T03:06:50.117Z,8
2015-09-09T03:07:08.492Z,8
2015-09-09T03:07:27.007Z,8
2015-09-09T03:07:45.400Z,8
2015-09-09T03:08:03.791Z,8
2015-09-09T03:08:22.353Z,8
2015-09-09T03:08:40.884Z,8
2015-09-09T03:08:59.370Z,7.9
2015-09-09T03:09:18.010Z,7.9
2015-09-09T03:09:36.510Z,7.9
2015-09-09T03:09:54.904Z,7.9
2015-09-09T03:10:13.295Z,7.9
2015-09-09T03:10:31.795Z,7.9
2015-09-09T03:10:50.390Z,7.9
2015-09-09T03:11:08.812Z,7.9
2015-09-09T03:11:27.234Z,7.9
2015-09-09T03:11:45.734Z,7.9
2015-09-09T03:12:04.127Z,7.9
2015-09-09T03:12:22.517Z,8
2015-09-09T03:12:40.924Z,8
2015-09-09T03:12:59.487Z,8
2015-09-09T03:13:17.909Z,7.9
2015-09-09T03:13:36.378Z,8
2015-09-09T03:13:54.787Z,7.9
2015-09-09T03:14:13.349Z,7.9
2015-09-09T03:14:31.990Z,7.9
2015-09-09T03:14:50.383Z,7.9
2015-09-09T03:15:08.789Z,7.9
2015-09-09T03:15:27.383Z,8
2015-09-09T03:15:45.758Z,8
2015-09-09T03:16:04.149Z,7.9
2015-09-09T03:16:22.571Z,7.9
2015-09-09T03:16:41.118Z,7.9
2015-09-09T03:16:59.574Z,7.9
2015-09-09T03:17:18.168Z,8
2015-09-09T03:17:36.652Z,8
2015-09-09T03:17:55.060Z,7.9
2015-09-09T03:18:13.700Z,7.9
2015-09-09T03:18:32.091Z,7.9
2015-09-09T03:18:50.685Z,7.8
2015-09-09T03:19:09.109Z,7.8
2015-09-09T03:19:27.547Z,7.8
2015-09-09T03:19:45.984Z,7.8
2015-09-09T03:20:04.424Z,7.8
2015-09-09T03:20:22.893Z,7.7
2015-09-09T03:20:41.299Z,7.7
2015-09-09T03:21:00.129Z,7.7
2015-09-09T03:21:18.738Z,7.8
2015-09-09T03:21:37.223Z,7.8
2015-09-09T03:21:55.723Z,7.8
2015-09-09T03:22:14.318Z,7.8
2015-09-09T03:22:32.974Z,7.8
2015-09-09T03:22:51.349Z,7.7
2015-09-09T03:23:10.101Z,7.7
2015-09-09T03:23:28.476Z,7.8
2015-09-09T03:23:46.851Z,7.8
2015-09-09T03:24:05.243Z,7.8
2015-09-09T03:24:23.650Z,7.8
2015-09-09T03:24:42.103Z,7.7
2015-09-09T03:25:00.464Z,7.7
2015-09-09T03:25:18.902Z,7.7
2015-09-09T03:25:37.277Z,7.7
2015-09-09T03:25:55.683Z,7.7
2015-09-09T03:26:14.232Z,7.7
2015-09-09T03:26:32.638Z,7.6
2015-09-09T03:26:51.216Z,7.7
2015-09-09T03:27:09.578Z,7.7
2015-09-09T03:27:28.234Z,7.7
2015-09-09T03:27:46.874Z,7.7
2015-09-09T03:28:05.376Z,7.6
2015-09-09T03:28:23.783Z,7.6
2015-09-09T03:28:42.189Z,7.7
2015-09-09T03:29:00.580Z,7.7
2015-09-09T03:29:18.988Z,7.7
2015-09-09T03:29:37.410Z,7.8
2015-09-09T03:29:55.988Z,7.7
2015-09-09T03:30:14.379Z,7.8
2015-09-09T03:30:32.864Z,7.8
2015-09-09T03:30:51.223Z,7.7
2015-09-09T03:31:09.648Z,7.7
2015-09-09T03:31:28.164Z,7.7
2015-09-09T03:31:46.664Z,7.7
2015-09-09T03:32:05.086Z,7.7
2015-09-09T03:32:23.463Z,7.7
2015-09-09T03:32:41.963Z,7.7
2015-09-09T03:33:00.400Z,7.7
2015-09-09T03:33:19.074Z,7.7
2015-09-09T03:33:37.465Z,7.7
2015-09-09T03:33:55.949Z,7.7
2015-09-09T03:34:14.670Z,7.7
2015-09-09T03:34:33.232Z,7.7
2015-09-09T03:34:51.592Z,7.6
2015-09-09T03:35:10.060Z,7.6
2015-09-09T03:35:28.453Z,7.6
2015-09-09T03:35:46.969Z,7.5
2015-09-09T03:36:05.578Z,7.5
2015-09-09T03:36:24.002Z,7.5
2015-09-09T03:36:42.596Z,7.6
2015-09-09T03:37:00.971Z,7.6
2015-09-09T03:37:19.487Z,7.6
2015-09-09T03:37:37.909Z,7.6
2015-09-09T03:37:56.503Z,7.6
2015-09-09T03:38:14.911Z,7.6
2015-09-09T03:38:32.927Z,7.7
2015-09-09T03:38:51.349Z,7.7
2015-09-09T03:39:09.770Z,7.7
2015-09-09T03:39:28.195Z,7.7
2015-09-09T03:39:46.570Z,7.7
2015-09-09T03:40:04.945Z,7.7
2015-09-09T03:40:23.541Z,7.7
2015-09-09T03:40:41.932Z,7.7
2015-09-09T03:41:00.322Z,7.8
2015-09-09T03:41:18.698Z,7.7
2015-09-09T03:41:37.183Z,7.7
2015-09-09T03:41:55.511Z,7.7
2015-09-09T03:42:14.026Z,7.7
2015-09-09T03:42:32.639Z,7.6
2015-09-09T03:42:51.170Z,7.7
2015-09-09T03:43:09.576Z,7.7
2015-09-09T03:43:27.952Z,7.7
2015-09-09T03:43:46.655Z,7.7
2015-09-09T03:44:05.062Z,7.7
2015-09-09T03:44:23.314Z,7.7
2015-09-09T03:44:41.704Z,7.6
2015-09-09T03:45:00.126Z,7.6
2015-09-09T03:45:18.564Z,7.6
2015-09-09T03:45:37.003Z,7.7
2015-09-09T03:45:55.519Z,7.6
2015-09-09T03:46:14.081Z,7.6
2015-09-09T03:46:32.521Z,7.6
2015-09-09T03:46:50.927Z,7.7
2015-09-09T03:47:09.302Z,7.6
2015-09-09T03:47:27.648Z,7.6
2015-09-09T03:47:46.148Z,7.6
2015-09-09T03:48:04.554Z,7.6
2015-09-09T03:48:23.070Z,7.6
2015-09-09T03:48:41.509Z,7.6
2015-09-09T03:49:00.134Z,7.6
2015-09-09T03:49:18.525Z,7.7
2015-09-09T03:49:36.886Z,7.7
2015-09-09T03:49:55.464Z,7.7
2015-09-09T03:50:13.933Z,7.7
2015-09-09T03:50:32.232Z,7.7
2015-09-09T03:50:50.638Z,7.7
2015-09-09T03:51:09.029Z,7.8
2015-09-09T03:51:27.607Z,7.7
2015-09-09T03:51:45.984Z,7.7
2015-09-09T03:52:04.625Z,7.7
2015-09-09T03:52:23.187Z,7.7
2015-09-09T03:52:41.891Z,7.7
2015-09-09T03:53:00.266Z,7.7
2015-09-09T03:53:18.626Z,7.7
2015-09-09T03:53:37.097Z,7.7
2015-09-09T03:53:55.535Z,7.7
2015-09-09T03:54:13.894Z,7.7
2015-09-09T03:54:32.506Z,7.7
2015-09-09T03:54:50.959Z,7.7
2015-09-09T03:55:09.396Z,7.7
2015-09-09T03:55:27.756Z,7.7
2015-09-09T03:55:46.179Z,7.7
2015-09-09T03:56:04.633Z,7.8
2015-09-09T03:56:23.054Z,7.8
2015-09-09T03:56:41.915Z,7.8
2015-09-09T03:57:00.337Z,7.8
2015-09-09T03:57:18.884Z,7.8
2015-09-09T03:57:37.277Z,7.8
2015-09-09T03:57:55.668Z,7.7
2015-09-09T03:58:14.183Z,7.7
2015-09-09T03:58:32.590Z,7.8
2015-09-09T03:58:50.982Z,7.8
2015-09-09T03:59:09.435Z,7.7
2015-09-09T03:59:27.920Z,7.8
2015-09-09T03:59:46.452Z,7.8
2015-09-09T04:00:04.983Z,7.8
2015-09-09T04:00:23.358Z,7.7
2015-09-09T04:00:41.829Z,7.8
2015-09-09T04:01:00.392Z,7.8
2015-09-09T04:01:18.907Z,7.8
2015-09-09T04:01:37.548Z,7.7
2015-09-09T04:01:55.925Z,7.7
2015-09-09T04:02:14.722Z,7.7
2015-09-09T04:02:33.206Z,7.8
2015-09-09T04:02:51.787Z,7.8
2015-09-09T04:03:10.225Z,7.8
2015-09-09T04:03:28.600Z,7.7
2015-09-09T04:03:46.992Z,7.8
2015-09-09T04:04:05.399Z,7.8
2015-09-09T04:04:23.774Z,7.8
2015-09-09T04:04:42.320Z,7.8
2015-09-09T04:05:00.713Z,7.8
2015-09-09T04:05:19.151Z,7.8
2015-09-09T04:05:37.510Z,7.8
2015-09-09T04:05:56.084Z,7.8
2015-09-09T04:06:14.444Z,7.9
2015-09-09T04:06:33.053Z,7.9
2015-09-09T04:06:51.550Z,7.8
2015-09-09T04:07:09.941Z,7.8
2015-09-09T04:07:28.316Z,7.9
2015-09-09T04:07:46.738Z,7.8
2015-09-09T04:08:05.343Z,7.8
2015-09-09T04:08:23.703Z,7.8
2015-09-09T04:08:42.156Z,7.8
2015-09-09T04:09:00.823Z,7.8
2015-09-09T04:09:19.729Z,7.7
2015-09-09T04:09:38.120Z,7.8
2015-09-09T04:09:56.695Z,7.8
2015-09-09T04:10:15.211Z,7.8
2015-09-09T04:10:33.711Z,7.7
2015-09-09T04:10:52.244Z,7.7
2015-09-09T04:11:10.775Z,7.8
2015-09-09T04:11:29.400Z,7.8
2015-09-09T04:11:47.947Z,7.8
2015-09-09T04:12:06.401Z,7.8
2015-09-09T04:12:24.776Z,7.9
2015-09-09T04:12:43.136Z,7.9
2015-09-09T04:13:01.606Z,7.9
2015-09-09T04:13:20.028Z,7.9
2015-09-09T04:13:38.387Z,7.9
2015-09-09T04:13:57.029Z,7.9
2015-09-09T04:14:15.623Z,7.9
2015-09-09T04:14:34.076Z,7.9
2015-09-09T04:14:52.576Z,7.9
2015-09-09T04:15:11.076Z,7.8
2015-09-09T04:15:29.451Z,7.8
2015-09-09T04:15:47.889Z,7.8